Time;durP1;ratioP1;P1;durP2;ratioP2;P2;SDS_P1;SDS_P2;PMS_P1;PMS_P2;Temp;Humidity;BMP_temperature;BMP_pressure;BME280_temperature;BME280_humidity;BME280_pressure;Samples;Min_cycle;Max_cycle;Signal;HPM_P1;HPM_P2
2022/09/20 00:02:44;;;;;;;2.45;1.45;;;;;;;8.95;100.00;99742.78;4449589;32;35254;-79
2022/09/20 00:05:35;;;;;;;2.90;1.52;;;;;;;8.82;100.00;99735.31;4449805;32;34292;-79
2022/09/20 00:08:21;;;;;;;2.70;1.50;;;;;;;8.91;100.00;99739.03;4448631;32;34674;-79
2022/09/20 00:11:20;;;;;;;2.40;1.42;;;;;;;8.88;100.00;99744.25;4449742;32;34866;-78
2022/09/20 00:14:09;;;;;;;3.22;1.50;;;;;;;8.81;100.00;99741.09;4436311;32;34223;-80
2022/09/20 00:16:56;;;;;;;4.87;1.60;;;;;;;8.87;100.00;99731.69;4449894;32;35680;-79
2022/09/20 00:19:42;;;;;;;3.65;1.27;;;;;;;8.72;100.00;99735.50;4449370;32;35531;-79
2022/09/20 00:22:29;;;;;;;3.20;1.60;;;;;;;8.84;100.00;99732.31;4450407;32;35326;-79
2022/09/20 00:25:15;;;;;;;2.47;1.17;;;;;;;8.61;100.00;99734.81;4438261;32;32641;-79
2022/09/20 00:28:02;;;;;;;2.00;1.30;;;;;;;9.18;100.00;99745.69;4449362;32;34416;-78
2022/09/20 00:30:48;;;;;;;1.40;1.02;;;;;;;8.71;100.00;99731.16;4449701;32;34452;-79
2022/09/20 00:36:40;;;;;;;2.03;1.10;;;;;;;8.50;100.00;99727.88;4448359;32;34147;-80
2022/09/20 00:39:26;;;;;;;1.95;1.00;;;;;;;9.00;100.00;99731.75;4449787;32;34828;-79
2022/09/20 00:42:13;;;;;;;1.40;0.93;;;;;;;8.94;100.00;99730.22;4450141;32;34789;-79
2022/09/20 00:45:04;;;;;;;1.95;1.08;;;;;;;8.83;100.00;99725.22;4437256;32;35627;-79
2022/09/20 00:48:03;;;;;;;3.35;1.15;;;;;;;8.62;100.00;99730.97;4448530;32;34194;-80
2022/09/20 00:50:56;;;;;;;1.73;0.90;;;;;;;9.21;100.00;99734.16;4447685;32;34492;-79
2022/09/20 00:53:46;;;;;;;1.30;0.80;;;;;;;8.98;100.00;99728.50;4437509;32;34749;-79
2022/09/20 00:56:35;;;;;;;1.17;0.90;;;;;;;8.67;100.00;99733.63;4423343;32;35262;-79
2022/09/20 00:59:24;;;;;;;1.60;0.88;;;;;;;8.67;100.00;99736.38;4437784;32;34329;-79
2022/09/20 01:02:20;;;;;;;1.95;0.85;;;;;;;8.68;100.00;99739.91;4429011;32;35556;-78
2022/09/20 01:05:07;;;;;;;2.67;0.85;;;;;;;8.63;100.00;99748.19;4435998;32;34949;-79
2022/09/20 01:07:54;;;;;;;1.65;1.00;;;;;;;8.45;100.00;99742.44;4435176;32;34697;-79
2022/09/20 01:10:41;;;;;;;2.42;1.10;;;;;;;8.21;100.00;99750.63;4449064;32;34803;-79
2022/09/20 01:13:28;;;;;;;2.95;1.00;;;;;;;8.34;100.00;99746.38;4447990;32;35606;-79
2022/09/20 01:16:14;;;;;;;2.00;0.93;;;;;;;8.74;100.00;99744.22;4448579;32;36016;-80
2022/09/20 01:19:08;;;;;;;2.40;0.90;;;;;;;8.93;100.00;99747.72;4436172;32;35559;-80
2022/09/20 01:21:55;;;;;;;1.33;0.82;;;;;;;9.12;100.00;99752.34;4434429;32;34143;-78
2022/09/20 01:25:09;;;;;;;2.17;0.90;;;;;;;8.76;100.00;99752.91;4426257;32;33438;-79
2022/09/20 01:27:55;;;;;;;1.20;0.70;;;;;;;8.52;100.00;99756.53;4435546;32;35007;-79
2022/09/20 01:30:51;;;;;;;3.10;1.00;;;;;;;8.40;100.00;99761.59;4447831;32;34275;-79
2022/09/20 01:33:48;;;;;;;2.65;0.98;;;;;;;8.60;100.00;99755.06;4437254;32;34363;-79
2022/09/20 01:36:44;;;;;;;2.62;1.00;;;;;;;8.46;100.00;99752.25;4449787;32;34805;-79
2022/09/20 01:39:39;;;;;;;2.55;0.80;;;;;;;8.58;100.00;99745.53;4447730;32;36403;-79
2022/09/20 01:42:31;;;;;;;3.50;1.08;;;;;;;8.50;100.00;99761.47;4437526;32;35447;-79
2022/09/20 01:45:22;;;;;;;1.77;0.77;;;;;;;8.60;100.00;99770.63;4436844;32;35058;-79
2022/09/20 01:48:28;;;;;;;9.57;3.55;;;;;;;9.03;100.00;99767.81;4437059;32;34659;-79
2022/09/20 01:51:53;;;;;;;3.80;1.02;;;;;;;9.07;100.00;99768.81;4447638;32;35991;-80
2022/09/20 01:55:17;;;;;;;1.73;0.95;;;;;;;9.03;100.00;99771.34;4448311;32;34769;-79
2022/09/20 01:58:34;;;;;;;1.48;0.73;;;;;;;9.07;100.00;99775.09;4436299;32;34804;-79
2022/09/20 02:01:45;;;;;;;1.92;1.00;;;;;;;9.68;100.00;99779.53;4448602;32;35602;-79
2022/09/20 02:04:55;;;;;;;2.75;1.10;;;;;;;9.44;100.00;99779.69;4436000;32;35927;-79
2022/09/20 02:08:00;;;;;;;1.08;0.82;;;;;;;9.90;100.00;99773.41;4450300;32;33401;-79
2022/09/20 02:11:07;;;;;;;1.48;0.80;;;;;;;10.13;100.00;99776.22;4450342;32;33913;-79
2022/09/20 02:14:19;;;;;;;11.05;3.22;;;;;;;10.53;100.00;99771.03;4438001;32;35638;-79
2022/09/20 02:17:13;;;;;;;1.20;0.70;;;;;;;10.55;100.00;99777.03;4450325;32;35107;-79
2022/09/20 02:20:14;;;;;;;3.10;0.90;;;;;;;11.06;100.00;99788.78;4449351;32;34583;-79
2022/09/20 02:23:33;;;;;;;2.15;0.82;;;;;;;11.20;100.00;99786.78;4438204;32;35033;-79
2022/09/20 02:26:35;;;;;;;2.50;0.70;;;;;;;11.57;100.00;99782.03;4436514;32;34689;-79
2022/09/20 02:29:40;;;;;;;3.55;1.10;;;;;;;11.42;100.00;99785.97;4437209;32;34950;-79
2022/09/20 02:32:57;;;;;;;1.00;0.77;;;;;;;11.13;100.00;99783.69;4449141;32;34369;-79
2022/09/20 02:36:16;;;;;;;2.35;0.90;;;;;;;10.47;100.00;99778.59;4449198;32;33694;-79
2022/09/20 02:39:15;;;;;;;3.67;1.30;;;;;;;11.42;100.00;99785.97;4433445;32;34694;-79
2022/09/20 02:42:16;;;;;;;1.45;0.98;;;;;;;10.83;100.00;99779.72;4436913;32;35029;-79
2022/09/20 02:45:11;;;;;;;2.28;0.90;;;;;;;11.29;100.00;99782.16;4425442;32;35470;-79
2022/09/20 02:48:02;;;;;;;1.10;0.77;;;;;;;11.29;100.00;99779.41;4438786;32;35049;-79
2022/09/20 02:51:05;;;;;;;1.23;0.97;;;;;;;11.49;100.00;99789.06;4439012;32;33680;-79
2022/09/20 02:54:23;;;;;;;2.03;0.82;;;;;;;11.24;100.00;99785.03;4438397;32;34976;-79
2022/09/20 02:57:39;;;;;;;3.45;0.80;;;;;;;11.25;100.00;99789.41;4431175;32;34836;-79
2022/09/20 03:00:26;;;;;;;;;;;;;;;11.64;100.00;99802.41;4436588;32;35282;-79
2022/09/20 03:03:16;;;;;;;;;;;;;;;11.47;100.00;99805.06;4438133;32;34450;-79
2022/09/20 03:06:16;;;;;;;;;;;;;;;11.60;100.00;99804.16;4438107;32;34574;-80
2022/09/20 03:09:12;;;;;;;;;;;;;;;11.15;100.00;99803.34;4437602;32;34948;-80
2022/09/20 03:12:17;;;;;;;;;;;;;;;11.67;100.00;99811.97;4439210;32;34125;-79
2022/09/20 03:15:03;;;;;;;;;;;;;;;11.25;100.00;99806.66;4450095;32;34999;-80
2022/09/20 03:18:09;;;;;;;;;;;;;;;9.45;100.00;99810.59;4447753;32;35250;-79
2022/09/20 03:21:15;;;;;;;;;;;;;;;9.65;100.00;99809.44;4449079;32;35597;-79
2022/09/20 03:24:02;;;;;;;;;;;;;;;9.58;100.00;99807.06;4447377;32;34122;-79
2022/09/20 03:26:54;;;;;;;;;;;;;;;9.15;100.00;99803.69;4449837;32;34974;-79
2022/09/20 03:29:46;;;;;;;;;;;;;;;8.82;100.00;99797.34;4451271;32;35291;-79
2022/09/20 03:32:41;;;;;;;;;;;;;;;8.71;100.00;99802.16;4449693;32;34962;-78
2022/09/20 03:35:41;;;;;;;;;;;;;;;8.36;100.00;99806.12;4449182;32;33043;-79
2022/09/20 03:38:29;;;;;;;;;;;;;;;8.66;100.00;99799.50;4450064;32;34880;-79
2022/09/20 03:41:16;;;;;;;;;;;;;;;8.61;100.00;99805.03;4438123;32;35289;-79
2022/09/20 03:44:07;;;;;;;;;;;;;;;8.65;100.00;99801.44;4451150;32;35757;-79
2022/09/20 03:47:12;;;;;;;;;;;;;;;8.24;100.00;99809.28;4428669;32;35032;-79
2022/09/20 03:50:17;;;;;;;;;;;;;;;8.39;100.00;99809.13;4449814;32;34984;-79
2022/09/20 03:53:15;;;;;;;;;;;;;;;7.92;100.00;99797.09;4450462;32;34655;-78
2022/09/20 03:56:05;;;;;;;;;;;;;;;7.99;100.00;99789.34;4439595;32;35039;-79
2022/09/20 03:59:10;;;;;;;;;;;;;;;7.93;100.00;99793.25;4450354;32;34205;-78
2022/09/20 04:02:15;;;;;;;;;;;;;;;7.88;100.00;99798.75;4449215;32;34963;-79
2022/09/20 04:05:15;;;;;;;;;;;;;;;7.83;100.00;99796.09;4451121;32;36077;-78
2022/09/20 04:08:24;;;;;;;;;;;;;;;7.63;100.00;99800.66;4438464;32;35742;-79
2022/09/20 04:11:25;;;;;;;;;;;;;;;7.94;100.00;99796.78;4439450;32;33715;-79
2022/09/20 04:14:30;;;;;;;;;;;;;;;7.94;100.00;99799.50;4439297;32;35449;-79
2022/09/20 04:17:15;;;;;;;;;;;;;;;7.79;100.00;99803.22;4440082;32;35190;-79
2022/09/20 04:20:01;;;;;;;;;;;;;;;7.52;100.00;99809.22;4452189;32;35702;-78
2022/09/20 04:22:50;;;;;;;;;;;;;;;7.33;100.00;99820.00;4451876;32;33925;-78
2022/09/20 04:25:36;;;;;;;;;;;;;;;7.47;100.00;99818.25;4437879;32;35795;-77
2022/09/20 04:28:48;;;;;;;;;;;;;;;7.44;100.00;99816.09;4443055;32;35256;-78
2022/09/20 04:31:36;;;;;;;;;;;;;;;7.06;100.00;99807.69;4441593;32;34959;-78
2022/09/20 04:37:38;;;;;;;;;;;;;;;7.02;100.00;99809.31;4441603;32;35074;-78
2022/09/20 04:40:41;;;;;;;;;;;;;;;7.00;100.00;99811.50;4440794;32;36119;-77
2022/09/20 04:43:27;;;;;;;;;;;;;;;7.14;100.00;99817.13;4439220;32;34603;-77
2022/09/20 04:46:19;;;;;;;;;;;;;;;7.50;100.00;99814.12;4452574;32;34347;-77
2022/09/20 04:49:05;;;;;;;;;;;;;;;7.39;100.00;99816.13;4451846;32;34954;-78
2022/09/20 04:52:02;;;;;;;;;;;;;;;7.63;100.00;99819.75;4452310;32;36204;-78
2022/09/20 04:54:48;;;;;;;;;;;;;;;8.03;100.00;99822.34;4453546;32;35907;-78
2022/09/20 04:58:00;;;;;;;;;;;;;;;8.21;100.00;99828.97;4452351;32;34371;-78
2022/09/20 05:00:52;;;;;;;;;;;;;;;8.40;100.00;99829.06;4440988;32;34998;-78
2022/09/20 05:03:58;;;;;;;4.68;2.87;;;;;;;8.71;100.00;99824.03;4452957;32;35350;-78
2022/09/20 05:07:02;;;;;;;4.65;2.72;;;;;;;8.48;100.00;99836.59;4451551;32;34851;-78
2022/09/20 05:10:06;;;;;;;6.37;2.75;;;;;;;8.82;100.00;99828.22;4437300;32;33070;-77
2022/09/20 05:13:14;;;;;;;6.07;2.83;;;;;;;8.91;100.00;99821.00;4415322;32;35598;-76
2022/09/20 05:16:02;;;;;;;5.25;2.92;;;;;;;8.78;100.00;99821.72;4433608;32;35005;-77
2022/09/20 05:19:28;;;;;;;5.65;2.42;;;;;;;8.36;100.00;99841.63;4428453;32;34462;-77
2022/09/20 05:22:26;;;;;;;5.30;2.75;;;;;;;8.39;100.00;99844.59;4435942;32;35031;-76
2022/09/20 05:25:35;;;;;;;5.32;2.65;;;;;;;8.05;100.00;99840.06;4449889;32;34342;-77
2022/09/20 05:28:30;;;;;;;6.12;3.05;;;;;;;7.77;100.00;99859.97;4452966;32;34972;-77
2022/09/20 05:31:27;;;;;;;6.60;3.28;;;;;;;8.19;100.00;99851.09;4439245;32;34672;-77
2022/09/20 05:34:23;;;;;;;4.68;2.90;;;;;;;7.84;100.00;99855.81;4441335;32;35106;-77
2022/09/20 05:37:28;;;;;;;5.80;2.83;;;;;;;7.93;100.00;99863.37;4439069;32;34594;-77
2022/09/20 05:40:24;;;;;;;5.45;3.00;;;;;;;7.95;100.00;99851.06;4449871;32;35078;-80
2022/09/20 05:43:19;;;;;;;7.22;3.60;;;;;;;7.85;100.00;99859.34;4425193;32;34195;-78
2022/09/20 05:46:12;;;;;;;5.53;2.72;;;;;;;8.05;100.00;99864.63;4440640;32;35099;-77
2022/09/20 05:49:06;;;;;;;4.90;2.78;;;;;;;8.07;100.00;99865.13;4447216;32;34652;-78
2022/09/20 05:52:30;;;;;;;5.85;3.10;;;;;;;8.31;100.00;99861.59;4436391;32;34716;-79
2022/09/20 05:55:39;;;;;;;4.82;2.70;;;;;;;8.23;100.00;99865.00;4441324;32;34585;-80
2022/09/20 05:58:34;;;;;;;3.78;2.42;;;;;;;8.44;100.00;99858.22;4446783;32;34323;-82
2022/09/20 06:01:20;;;;;;;5.05;2.78;;;;;;;8.37;100.00;99855.00;4437605;32;34683;-82
2022/09/20 06:04:21;;;;;;;3.97;2.42;;;;;;;9.21;100.00;99857.19;4447851;32;35077;-81
2022/09/20 06:07:23;;;;;;;5.90;2.78;;;;;;;8.88;100.00;99864.47;4438297;32;34145;-79
2022/09/20 06:10:30;;;;;;;4.62;2.40;;;;;;;9.40;100.00;99860.72;4446056;32;33072;-79
2022/09/20 06:13:29;;;;;;;6.40;2.35;;;;;;;8.77;100.00;99864.63;4433050;32;35051;-80
2022/09/20 06:16:32;;;;;;;5.85;2.85;;;;;;;9.35;100.00;99862.72;4425390;32;34978;-79
2022/09/20 06:19:34;;;;;;;5.72;2.58;;;;;;;9.18;100.00;99869.50;4429093;32;34390;-80
2022/09/20 06:22:28;;;;;;;8.23;2.67;;;;;;;9.53;100.00;99872.81;4424821;32;33897;-82
2022/09/20 06:25:19;;;;;;;5.40;2.30;;;;;;;9.60;100.00;99875.97;4435622;32;34061;-79
2022/09/20 06:28:17;;;;;;;4.10;2.30;;;;;;;9.64;100.00;99876.19;4427504;32;34378;-79
2022/09/20 06:31:07;;;;;;;6.68;2.70;;;;;;;9.68;100.00;99877.25;4436473;32;33176;-80
2022/09/20 06:33:57;;;;;;;3.95;2.35;;;;;;;9.89;100.00;99875.75;4441136;32;33564;-80
2022/09/20 06:43:22;;;;;;;5.50;2.17;;;;;;;10.19;100.00;99884.56;4445885;32;34256;-83
2022/09/20 06:46:09;;;;;;;5.20;2.30;;;;;;;9.94;100.00;99874.06;4444545;32;35158;-83
2022/09/20 06:48:56;;;;;;;3.97;2.28;;;;;;;10.38;100.00;99875.47;4433945;32;34723;-83
2022/09/20 06:51:42;;;;;;;3.55;2.47;;;;;;;9.85;100.00;99872.00;4437661;32;34450;-81
2022/09/20 06:54:28;;;;;;;4.12;2.95;;;;;;;9.90;100.00;99871.09;4435197;32;34876;-82
2022/09/20 06:57:34;;;;;;;7.05;2.83;;;;;;;10.25;100.00;99880.59;4430709;32;35289;-82
2022/09/20 07:00:20;;;;;;;5.65;2.40;;;;;;;10.00;100.00;99883.81;4435652;32;35700;-80
2022/09/20 07:03:07;;;;;;;3.95;2.12;;;;;;;10.14;100.00;99879.16;4444831;32;35932;-83
2022/09/20 07:05:53;;;;;;;4.75;2.20;;;;;;;10.09;100.00;99876.50;4447420;32;34615;-83
2022/09/20 07:08:39;;;;;;;4.37;2.28;;;;;;;10.17;100.00;99881.28;4447640;32;33764;-83
2022/09/20 07:11:26;;;;;;;4.53;2.20;;;;;;;10.29;100.00;99876.16;4446360;32;35516;-82
2022/09/20 07:14:14;;;;;;;5.15;2.83;;;;;;;10.51;100.00;99869.97;4435510;32;33798;-83
2022/09/20 07:17:00;;;;;;;7.65;2.65;;;;;;;10.52;100.00;99879.00;4448056;32;34634;-81
2022/09/20 07:19:47;;;;;;;3.87;2.20;;;;;;;10.08;100.00;99894.87;4437726;32;33090;-83
2022/09/20 07:22:33;;;;;;;5.05;2.22;;;;;;;9.93;100.00;99897.06;4449394;32;34134;-80
2022/09/20 07:25:20;;;;;;;6.50;2.40;;;;;;;10.55;100.00;99889.34;4450575;32;35996;-82
2022/09/20 07:28:06;;;;;;;5.85;2.40;;;;;;;10.35;100.00;99896.03;4448500;32;34212;-81
2022/09/20 07:30:53;;;;;;;5.60;2.22;;;;;;;10.37;100.00;99890.28;4437424;32;33003;-80
2022/09/20 07:33:39;;;;;;;4.45;2.05;;;;;;;10.62;100.00;99892.53;4439989;32;34786;-79
2022/09/20 07:36:25;;;;;;;7.20;2.30;;;;;;;10.31;100.00;99904.06;4453056;32;35095;-81
2022/09/20 07:39:11;;;;;;;6.03;3.00;;;;;;;10.65;100.00;99900.13;4437766;32;35393;-81
2022/09/20 07:41:58;;;;;;;4.85;2.50;;;;;;;10.75;100.00;99905.38;4442680;32;33147;-83
2022/09/20 07:44:44;;;;;;;7.15;3.42;;;;;;;10.49;100.00;99907.03;4437324;32;34698;-82
2022/09/20 07:47:31;;;;;;;4.07;1.70;;;;;;;10.45;100.00;99911.50;4446094;32;35668;-81
2022/09/20 07:50:18;;;;;;;5.15;2.25;;;;;;;10.70;100.00;99912.91;4422357;32;34872;-80
2022/09/20 07:53:04;;;;;;;2.37;1.67;;;;;;;10.93;100.00;99905.56;4447607;32;34787;-79
2022/09/20 07:56:02;;;;;;;3.58;1.77;;;;;;;11.34;100.00;99910.16;4435044;32;34689;-81
2022/09/20 07:58:50;;;;;;;3.33;2.00;;;;;;;11.03;100.00;99910.84;4428050;32;35010;-78
2022/09/20 08:01:38;;;;;;;5.10;2.60;;;;;;;11.37;100.00;99912.28;4444587;32;34132;-78
2022/09/20 08:04:25;;;;;;;2.78;1.80;;;;;;;11.42;100.00;99912.19;4435338;32;34207;-80
2022/09/20 08:07:11;;;;;;;4.55;2.47;;;;;;;11.44;100.00;99908.00;4436780;32;35558;-80
2022/09/20 08:09:58;;;;;;;3.20;1.70;;;;;;;12.17;100.00;99909.81;4446702;32;34600;-79
2022/09/20 08:12:44;;;;;;;2.47;1.37;;;;;;;12.26;100.00;99913.41;4442061;32;34598;-80
2022/09/20 08:15:51;;;;;;;2.75;1.73;;;;;;;12.14;100.00;99917.56;4448741;32;34826;-77
2022/09/20 08:18:51;;;;;;;4.05;1.98;;;;;;;11.95;100.00;99936.16;4440621;32;34643;-81
2022/09/20 08:21:37;;;;;;;3.25;1.40;;;;;;;12.10;100.00;99911.09;4434011;32;36272;-79
2022/09/20 08:24:25;;;;;;;3.35;1.77;;;;;;;12.19;100.00;99918.56;4447382;32;34185;-78
2022/09/20 08:27:12;;;;;;;3.05;1.60;;;;;;;12.62;99.56;99909.72;4420828;32;33618;-79
2022/09/20 08:29:59;;;;;;;3.15;1.70;;;;;;;11.80;100.00;99917.31;4434197;32;34180;-78
2022/09/20 08:32:46;;;;;;;2.20;1.40;;;;;;;12.03;100.00;99915.38;4446437;32;36006;-79
2022/09/20 08:35:35;;;;;;;3.70;2.15;;;;;;;12.52;99.20;99908.03;4443466;32;34375;-79
2022/09/20 08:38:26;;;;;;;2.60;1.50;;;;;;;12.22;99.49;99910.50;4444835;32;33248;-78
2022/09/20 08:41:37;;;;;;;2.45;1.55;;;;;;;12.39;98.38;99912.53;4436609;32;35486;-79
2022/09/20 08:44:27;;;;;;;2.60;1.42;;;;;;;12.47;99.40;99908.19;4433357;32;34475;-79
2022/09/20 08:47:20;;;;;;;2.53;1.30;;;;;;;12.48;100.00;99920.81;4431662;32;34808;-78
2022/09/20 08:50:07;;;;;;;3.40;1.60;;;;;;;13.00;98.53;99926.47;4435630;32;35230;-79
2022/09/20 08:52:57;;;;;;;2.00;1.35;;;;;;;12.77;97.00;99934.00;4424693;32;34718;-82
2022/09/20 08:55:46;;;;;;;2.55;1.23;;;;;;;12.34;98.25;99926.38;4447737;32;36042;-81
2022/09/20 08:58:33;;;;;;;2.08;1.30;;;;;;;12.62;96.56;99928.94;4430185;32;35509;-83
2022/09/20 09:01:22;;;;;;;2.60;1.35;;;;;;;13.04;96.01;99921.97;4436334;32;34999;-84
2022/09/20 09:04:12;;;;;;;;;;;;;;;12.76;96.36;99915.91;4435275;32;34299;-87
2022/09/20 09:06:59;;;;;;;3.60;1.08;;;;;;;13.86;91.70;99925.75;4427688;32;35143;-81
2022/09/20 09:09:46;;;;;;;2.00;1.00;;;;;;;13.32;93.49;99917.03;4426698;32;35436;-82
2022/09/20 09:12:34;;;;;;;1.30;0.80;;;;;;;13.22;94.56;99909.84;4435311;32;35153;-78
2022/09/20 09:15:28;;;;;;;1.87;1.00;;;;;;;13.43;92.21;99917.50;4424142;32;34803;-77
2022/09/20 09:18:15;;;;;;;2.47;1.08;;;;;;;12.93;92.78;99915.13;4435922;32;35047;-79
2022/09/20 09:21:04;;;;;;;2.08;1.02;;;;;;;12.74;92.34;99923.66;4448883;32;34855;-81
2022/09/20 09:24:04;;;;;;;3.70;1.20;;;;;;;12.89;92.57;99920.44;4436729;32;36111;-79
2022/09/20 09:27:16;;;;;;;2.87;0.90;;;;;;;12.93;92.47;99907.69;4436295;32;34259;-78
2022/09/20 09:30:19;;;;;;;3.35;1.40;;;;;;;13.38;92.05;99910.22;4432745;32;33976;-80
2022/09/20 09:33:26;;;;;;;2.37;1.37;;;;;;;13.92;91.65;99902.41;4436890;32;35450;-78
2022/09/20 09:36:22;;;;;;;2.97;1.17;;;;;;;13.61;90.37;99904.56;4433741;32;34155;-80
2022/09/20 09:39:15;;;;;;;5.25;2.25;;;;;;;13.43;91.41;99912.00;4444663;32;34244;-82
2022/09/20 09:42:19;;;;;;;1.90;1.30;;;;;;;13.04;93.65;99909.00;4436099;32;36131;-79
2022/09/20 09:45:25;;;;;;;2.45;1.12;;;;;;;12.79;92.42;99916.06;4433493;32;35478;-79
2022/09/20 09:48:18;;;;;;;;;;;;;;;12.19;94.20;99907.56;4433566;32;34884;-80
2022/09/20 09:51:10;;;;;;;1.33;0.75;;;;;;;13.65;90.75;99911.03;4446637;32;34605;-77
2022/09/20 09:53:57;;;;;;;1.30;0.93;;;;;;;13.48;89.43;99903.56;4429477;32;34975;-79
2022/09/20 09:56:56;;;;;;;1.85;0.95;;;;;;;13.29;92.54;99906.66;4448621;32;34656;-81
2022/09/20 09:59:56;;;;;;;1.30;0.80;;;;;;;13.53;88.51;99903.41;4443129;32;32675;-80
2022/09/20 10:02:52;;;;;;;1.37;0.80;;;;;;;13.34;87.81;99909.22;4427106;32;34680;-82
2022/09/20 10:05:41;;;;;;;1.35;0.80;;;;;;;14.33;85.27;99894.69;4449574;32;35242;-80
2022/09/20 10:08:52;;;;;;;3.35;1.02;;;;;;;14.77;81.59;99898.91;4446440;32;33398;-78
2022/09/20 10:11:57;;;;;;;1.62;1.02;;;;;;;14.04;82.77;99903.69;4448911;32;34036;-79
2022/09/20 10:14:48;;;;;;;2.60;1.05;;;;;;;14.72;83.19;99901.84;4434776;32;35235;-78
2022/09/20 10:17:42;;;;;;;2.05;1.00;;;;;;;14.75;81.25;99901.19;4436334;32;35133;-76
2022/09/20 10:20:52;;;;;;;1.50;1.10;;;;;;;14.48;81.84;99907.09;4434000;32;34266;-79
2022/09/20 10:23:56;;;;;;;1.27;0.80;;;;;;;14.68;77.30;99895.37;4432770;32;33892;-79
2022/09/20 10:26:58;;;;;;;2.92;0.93;;;;;;;14.18;81.23;99905.09;4431707;32;35585;-81
2022/09/20 10:29:52;;;;;;;1.55;1.10;;;;;;;15.02;77.73;99904.59;4442221;32;35656;-82
2022/09/20 10:32:50;;;;;;;0.88;0.70;;;;;;;14.83;80.52;99891.25;4444165;32;33167;-83
2022/09/20 10:35:50;;;;;;;;;;;;;;;15.17;78.22;99901.25;4435797;32;34803;-81
2022/09/20 10:38:37;;;;;;;;;;;;;;;14.80;78.77;99895.47;4445928;32;34972;-80
2022/09/20 10:44:34;;;;;;;;;;;;;;;15.43;74.67;99878.97;4438929;32;36487;-81
2022/09/20 10:47:22;;;;;;;;;;;;;;;15.67;75.62;99875.50;4435068;32;34327;-82
2022/09/20 10:50:28;;;;;;;;;;;;;;;15.94;74.83;99874.13;4437077;32;33685;-81
2022/09/20 10:53:51;;;;;;;1.35;0.70;;;;;;;15.65;75.29;99872.28;4433449;32;36127;-80
2022/09/20 10:56:45;;;;;;;1.70;1.00;;;;;;;14.53;79.17;99879.37;4447233;32;34396;-77
2022/09/20 11:00:13;;;;;;;2.50;1.00;;;;;;;14.06;87.11;99898.62;4429021;32;33145;-81
2022/09/20 11:03:08;;;;;;;;;;;;;;;13.74;92.51;99900.81;4418293;32;34027;-80
2022/09/20 11:05:54;;;;;;;;;;;;;;;13.23;97.01;99899.63;4446237;32;35255;-81
2022/09/20 11:08:41;;;;;;;;;;;;;;;13.50;94.97;99893.06;4430400;32;34615;-79
2022/09/20 11:11:33;;;;;;;;;;;;;;;12.85;100.00;99900.22;4446411;32;33088;-77
2022/09/20 11:14:31;;;;;;;;;;;;;;;12.66;100.00;99910.69;4433579;32;36082;-76
2022/09/20 11:17:32;;;;;;;;;;;;;;;12.74;100.00;99904.41;4438701;32;34726;-79
2022/09/20 11:20:19;;;;;;;;;;;;;;;13.07;100.00;99904.00;4433529;32;33692;-78
2022/09/20 11:23:12;;;;;;;;;;;;;;;12.58;100.00;99893.03;4437266;32;34148;-78
2022/09/20 11:26:00;;;;;;;;;;;;;;;13.43;100.00;99893.56;4443759;32;34982;-78
2022/09/20 11:28:54;;;;;;;;;;;;;;;14.16;100.00;99892.78;4435607;32;36128;-78
2022/09/20 11:31:40;;;;;;;;;;;;;;;13.87;100.00;99888.00;4434020;32;34406;-77
2022/09/20 11:34:28;;;;;;;;;;;;;;;14.07;100.00;99881.78;4436936;32;33564;-77
2022/09/20 11:37:14;;;;;;;;;;;;;;;13.90;100.00;99877.13;4434178;32;35359;-77
2022/09/20 11:40:03;;;;;;;;;;;;;;;14.68;100.00;99876.06;4431172;32;35756;-76
2022/09/20 11:42:49;;;;;;;;;;;;;;;14.49;100.00;99870.16;4424293;32;34691;-77
2022/09/20 11:45:36;;;;;;;;;;;;;;;14.03;97.35;99872.59;4445990;32;33900;-78
2022/09/20 11:48:45;;;;;;;;;;;;;;;13.68;99.71;99871.81;4424478;32;34486;-78
2022/09/20 11:51:52;;;;;;;;;;;;;;;13.14;100.00;99871.31;4432307;32;35231;-77
2022/09/20 11:54:54;;;;;;;;;;;;;;;13.07;100.00;99869.06;4424480;32;34881;-78
2022/09/20 11:57:40;;;;;;;;;;;;;;;13.23;100.00;99861.13;4448611;32;33699;-77
2022/09/20 12:00:30;;;;;;;;;;;;;;;13.49;100.00;99856.47;4445608;32;34494;-77
2022/09/20 12:03:36;;;;;;;;;;;;;;;13.34;93.92;99859.69;4446217;32;36166;-78
2022/09/20 12:06:31;;;;;;;;;;;;;;;13.83;92.87;99859.47;4448893;32;34967;-78
2022/09/20 12:09:24;;;;;;;;;;;;;;;14.03;89.72;99853.28;4427024;32;34042;-78
2022/09/20 12:12:15;;;;;;;;;;;;;;;13.64;93.86;99857.09;4426661;32;35507;-78
2022/09/20 12:15:04;;;;;;;;;;;;;;;14.50;96.73;99856.00;4433161;32;35183;-78
2022/09/20 12:17:51;;;;;;;;;;;;;;;14.27;92.87;99858.22;4448636;32;35003;-77
2022/09/20 12:20:43;;;;;;;;;;;;;;;14.93;90.06;99848.66;4449317;32;32800;-79
2022/09/20 12:23:42;;;;;;;;;;;;;;;15.10;80.94;99845.78;4446493;32;34934;-79
2022/09/20 12:26:34;;;;;;;;;;;;;;;15.33;82.81;99837.16;4432778;32;34669;-78
2022/09/20 12:29:23;;;;;;;;;;;;;;;15.50;82.58;99842.53;4446759;32;34910;-78
2022/09/20 12:32:30;;;;;;;;;;;;;;;15.42;83.56;99848.94;4442161;32;112611;-79
2022/09/20 12:35:37;;;;;;;;;;;;;;;15.10;84.83;99848.53;4442621;32;34946;-80
2022/09/20 12:38:25;;;;;;;;;;;;;;;15.16;84.82;99838.09;4448463;32;35248;-78
2022/09/20 12:41:10;;;;;;;;;;;;;;;15.02;82.10;99844.69;4436556;32;34817;-79
2022/09/20 12:44:18;;;;;;;2.50;0.50;;;;;;;15.42;80.79;99840.66;4429019;32;34363;-79
2022/09/20 12:47:10;;;;;;;2.33;0.85;;;;;;;15.00;82.60;99837.91;4410160;32;34324;-78
2022/09/20 12:53:03;;;;;;;3.37;1.10;;;;;;;14.12;85.28;99839.50;4423409;32;34645;-78
2022/09/20 12:55:55;;;;;;;2.58;1.02;;;;;;;14.08;84.79;99844.81;4418197;32;33253;-79
2022/09/20 12:58:50;;;;;;;;;;;;;;;13.94;89.38;99855.25;4417922;32;34574;-80
2022/09/20 13:01:38;;;;;;;;;;;;;;;13.66;90.73;99854.81;4411771;32;35925;-81
2022/09/20 13:04:42;;;;;;;;;;;;;;;14.72;85.71;99843.13;4417006;32;34943;-77
2022/09/20 13:07:39;;;;;;;;;;;;;;;14.66;83.12;99848.03;4415302;32;35026;-79
2022/09/20 13:10:29;;;;;;;;;;;;;;;14.37;82.75;99844.09;4410276;32;34900;-81
2022/09/20 13:13:25;;;;;;;;;;;;;;;14.20;82.79;99851.59;4404437;32;35298;-80
2022/09/20 13:16:18;;;;;;;;;;;;;;;14.46;81.95;99843.22;4400912;32;35714;-80
2022/09/20 13:19:06;;;;;;;;;;;;;;;14.21;83.64;99850.47;4405579;32;34172;-80
2022/09/20 13:21:57;;;;;;;;;;;;;;;13.78;85.11;99846.72;4396862;32;34859;-80
2022/09/20 13:24:43;;;;;;;;;;;;;;;13.82;86.73;99849.59;4399860;32;34699;-81
2022/09/20 13:27:31;;;;;;;;;;;;;;;13.65;88.02;99839.44;4403646;32;34051;-78
2022/09/20 13:30:19;;;;;;;;;;;;;;;13.93;90.40;99846.19;4398462;32;33973;-79
2022/09/20 13:33:16;;;;;;;;;;;;;;;13.43;92.79;99845.94;4402002;32;34817;-78
2022/09/20 13:36:03;;;;;;;;;;;;;;;13.05;94.47;99850.09;4403819;32;35336;-78
2022/09/20 13:38:49;;;;;;;;;;;;;;;13.35;93.22;99832.97;4414109;32;35108;-78
2022/09/20 13:41:36;;;;;;;;;;;;;;;13.99;89.81;99840.50;4413196;32;35162;-79
2022/09/20 13:44:24;;;;;;;;;;;;;;;13.81;88.95;99829.53;4403282;32;36343;-79
2022/09/20 13:47:22;;;;;;;;;;;;;;;14.52;86.29;99815.16;4428621;32;35767;-79
2022/09/20 13:50:17;;;;;;;;;;;;;;;15.25;83.35;99825.87;4428349;32;35685;-82
2022/09/20 13:53:12;;;;;;;;;;;;;;;14.25;87.60;99832.94;4426524;32;33815;-77
2022/09/20 13:56:25;;;;;;;;;;;;;;;13.45;90.83;99833.47;4425780;32;33382;-77
2022/09/20 13:59:13;;;;;;;;;;;;;;;13.94;90.97;99831.28;4426533;32;36299;-77
2022/09/20 14:02:03;;;;;;;;;;;;;;;13.31;90.01;99838.34;4428073;32;34313;-79
2022/09/20 14:04:50;;;;;;;;;;;;;;;13.23;91.32;99828.09;4403087;32;34955;-79
2022/09/20 14:07:36;;;;;;;;;;;;;;;13.60;88.36;99840.41;4425715;32;34839;-79
2022/09/20 14:10:27;;;;;;;;;;;;;;;13.54;89.47;99829.91;4430828;32;36274;-80
2022/09/20 14:13:13;;;;;;;;;;;;;;;13.67;90.29;99835.22;4429284;32;35761;-79
2022/09/20 14:15:59;;;;;;;;;;;;;;;13.90;88.03;99824.81;4429151;32;34773;-79
2022/09/20 14:18:47;;;;;;;;;;;;;;;13.31;92.43;99838.34;4425908;32;34385;-79
2022/09/20 14:21:33;;;;;;;;;;;;;;;14.43;88.65;99827.34;4431950;32;36814;-80
2022/09/20 14:24:25;;;;;;;;;;;;;;;13.85;87.32;99830.47;4417277;32;35024;-80
2022/09/20 14:27:10;;;;;;;;;;;;;;;14.25;87.67;99835.69;4428101;32;33823;-80
2022/09/20 14:29:56;;;;;;;;;;;;;;;15.20;82.57;99825.25;4431469;32;34835;-79
2022/09/20 14:32:44;;;;;;;;;;;;;;;15.62;78.17;99823.22;4425721;32;35240;-80